EST,Max TemperatureF,Mean TemperatureF,Min TemperatureF,Max Dew PointF,MeanDew PointF,Min DewpointF,Max Humidity, Mean Humidity, Min Humidity, Max Sea Level PressureIn, Mean Sea Level PressureIn, Min Sea Level PressureIn, Max VisibilityMiles, Mean VisibilityMiles, Min VisibilityMiles, Max Wind SpeedMPH, Mean Wind SpeedMPH, Max Gust SpeedMPH,PrecipitationIn, CloudCover, Events, WindDirDegrees
2014-1-1,41,32,23,25,17,10,64,51,38,30.43,30.34,30.21,10,10,10,13,5,16,0.00,5,,159
2014-1-2,35,29,22,27,23,18,88,75,61,30.19,29.89,29.65,10,6,0,20,12,26,0.40,8,Fog-Snow,44
2014-1-3,22,17,11,18,7,-4,81,62,42,30.51,30.00,29.64,10,6,1,31,16,38,0.30,5,Snow,338
2014-1-4,29,19,8,15,5,-4,73,58,42,30.57,30.46,30.31,10,10,10,15,5,20,0.00,1,,188
2014-1-5,53,36,18,52,31,15,92,85,77,30.32,30.12,29.73,10,4,0,16,4,21,0.18,8,Fog-Rain,63
2014-1-6,60,37,13,56,38,-9,93,65,36,29.96,29.61,29.44,10,8,2,36,18,45,0.35,7,Rain-Snow,246
2014-1-7,13,9,4,-5,-12,-17,46,40,34,30.46,30.28,30.00,10,10,10,32,19,43,0.00,0,,275
2014-1-8,26,18,10,8,-2,-6,52,42,32,30.61,30.54,30.47,10,10,10,15,8,18,0.00,4,,245
2014-1-9,35,30,24,17,12,9,63,48,32,30.69,30.61,30.53,10,10,10,12,4,20,0.00,5,,51
2014-1-10,37,32,27,34,28,19,92,78,63,30.57,30.43,30.18,10,4,1,9,4,15,0.42,8,Rain-Snow,61
2014-1-11,61,49,36,58,50,34,93,88,83,30.16,29.71,29.37,10,6,1,22,10,33,0.76,8,Fog-Rain,212
2014-1-12,52,43,33,47,31,26,75,60,45,30.13,29.84,29.50,10,10,9,24,13,35,0.01,4,Rain,283
2014-1-13,57,43,28,36,31,26,92,68,43,30.14,30.05,29.89,10,10,8,20,6,24,0.00,4,,185
2014-1-14,51,44,37,45,42,35,93,77,61,29.90,29.79,29.71,10,7,0,16,7,22,0.17,6,Fog-Rain,238
2014-1-15,48,42,35,43,38,30,92,83,73,30.01,29.94,29.90,10,3,0,15,5,20,T,7,Fog-Rain,276
2014-1-16,39,33,27,34,24,18,79,62,44,29.99,29.95,29.88,10,8,1,15,7,21,T,6,Rain-Snow,299
2014-1-17,45,35,25,28,25,19,81,63,45,30.01,29.95,29.85,10,10,7,10,4,15,0.00,4,,164
2014-1-18,39,31,23,32,21,7,82,61,39,29.96,29.83,29.75,10,10,6,24,13,29,T,5,Rain-Snow,314
2014-1-19,42,32,21,23,15,8,59,50,41,29.94,29.82,29.73,10,10,10,25,10,31,0.00,4,,235
2014-1-20,51,42,33,26,25,21,70,52,33,29.91,29.73,29.64,10,10,10,29,12,36,0.00,6,,261
2014-1-21,38,26,14,21,14,6,84,65,46,29.97,29.90,29.82,10,3,0,25,15,33,0.90,8,Fog-Snow,27
2014-1-22,16,10,4,7,-4,-9,73,57,40,30.07,29.93,29.84,10,10,10,26,14,33,0.01,3,,322
2014-1-23,22,15,8,6,1,-4,61,51,41,30.37,30.22,30.09,10,10,10,24,12,30,0.00,4,,276
2014-1-24,19,14,8,1,-2,-4,63,51,39,30.48,30.36,30.12,10,10,10,18,12,22,0.00,2,,256
2014-1-25,27,23,19,19,13,1,81,63,45,30.07,29.66,29.50,10,6,0,23,14,32,0.15,7,Snow,212
2014-1-26,31,23,15,21,11,-1,74,56,38,29.97,29.79,29.59,10,8,1,23,9,32,0.03,5,Snow,254
2014-1-27,46,34,21,29,16,-3,70,51,31,30.16,29.83,29.65,10,10,10,32,12,39,0.00,6,,276
2014-1-28,21,17,12,2,-7,-10,42,37,31,30.44,30.33,30.18,10,10,5,23,10,28,T,8,Snow,319
2014-1-29,21,17,12,7,0,-9,76,54,31,30.37,30.25,30.20,10,7,2,20,10,23,0.07,6,Snow,302
2014-1-30,28,19,10,10,1,-4,62,46,29,30.51,30.39,30.24,10,10,10,10,4,13,0.00,1,,220
2014-1-31,46,33,20,22,17,10,74,53,31,30.26,30.19,30.14,10,10,10,10,4,12,0.00,7,,218